createdAt,value
2019-05-07T00:01:23.263Z,5.42
2019-05-07T00:03:54.681Z,9.05
2019-05-07T00:06:25.914Z,4.00
2019-05-07T00:08:57.556Z,4.40
2019-05-07T00:11:28.888Z,5.12
2019-05-07T00:14:00.134Z,6.67
2019-05-07T00:16:32.520Z,5.50
2019-05-07T00:19:03.656Z,4.30
2019-05-07T00:21:35.010Z,4.28
2019-05-07T00:24:06.942Z,4.55
2019-05-07T00:26:39.606Z,5.55
2019-05-07T00:29:12.986Z,5.03
2019-05-07T00:31:44.213Z,4.70
2019-05-07T00:34:17.253Z,4.80
2019-05-07T00:37:08.421Z,4.70
2019-05-07T00:39:42.421Z,4.55
2019-05-07T00:42:22.077Z,4.87
2019-05-07T00:45:16.859Z,5.50
2019-05-07T00:47:36.685Z,5.70
2019-05-07T00:50:09.654Z,5.65
2019-05-07T00:52:42.963Z,4.47
2019-05-07T00:55:14.098Z,4.33
2019-05-07T00:57:45.557Z,4.80
2019-05-07T01:00:16.700Z,5.25
2019-05-07T01:02:47.801Z,4.22
2019-05-07T01:05:19.316Z,5.83
2019-05-07T01:07:52.769Z,5.72
2019-05-07T01:10:23.851Z,5.30
2019-05-07T01:12:55.328Z,4.72
2019-05-07T01:15:31.005Z,4.22
2019-05-07T01:17:59.961Z,4.92
2019-05-07T01:20:32.950Z,5.95
2019-05-07T01:23:03.994Z,6.30
2019-05-07T01:25:35.443Z,6.35
2019-05-07T01:28:06.683Z,5.50
2019-05-07T01:30:38.349Z,5.42
2019-05-07T01:33:12.240Z,5.62
2019-05-07T01:35:45.085Z,4.97
2019-05-07T01:38:17.832Z,5.87
2019-05-07T01:40:49.293Z,4.67
2019-05-07T01:43:22.654Z,4.60
2019-05-07T01:45:53.737Z,5.53
2019-05-07T01:48:24.636Z,5.25
2019-05-07T01:50:56.045Z,4.87
2019-05-07T01:53:27.379Z,5.53
2019-05-07T01:55:58.795Z,7.70
2019-05-07T01:58:30.195Z,5.92
2019-05-07T02:01:02.825Z,5.97
2019-05-07T02:03:52.838Z,5.70
2019-05-07T02:06:25.726Z,5.45
2019-05-07T02:09:10.229Z,5.15
2019-05-07T02:11:46.486Z,4.35
2019-05-07T02:14:18.140Z,4.67
2019-05-07T02:16:49.491Z,5.17
2019-05-07T02:19:22.021Z,6.05
2019-05-07T02:21:53.326Z,5.37
2019-05-07T02:24:24.576Z,5.15
2019-05-07T02:26:55.924Z,5.12
2019-05-07T02:29:27.388Z,5.35
2019-05-07T02:31:58.802Z,5.92
2019-05-07T02:34:30.219Z,5.40
2019-05-07T02:37:04.466Z,5.60
2019-05-07T02:39:37.304Z,6.00
2019-05-07T02:42:09.482Z,5.92
2019-05-07T02:44:58.445Z,6.05
2019-05-07T02:47:33.094Z,5.58
2019-05-07T02:52:53.762Z,6.97
2019-05-07T02:55:28.273Z,6.05
2019-05-07T02:58:03.237Z,6.25
2019-05-07T03:00:33.347Z,7.53
2019-05-07T03:03:04.825Z,6.10
2019-05-07T03:05:36.185Z,5.40
2019-05-07T03:08:07.570Z,5.58
2019-05-07T03:10:38.797Z,5.80
2019-05-07T03:13:13.440Z,5.33
2019-05-07T03:15:43.746Z,5.92
2019-05-07T03:18:18.812Z,5.95
2019-05-07T03:20:49.529Z,5.33
2019-05-07T03:23:22.963Z,5.83
2019-05-07T03:25:55.704Z,5.28
2019-05-07T03:28:27.270Z,5.72
2019-05-07T03:31:05.751Z,5.20
2019-05-07T03:33:37.332Z,5.00
2019-05-07T03:36:09.532Z,5.35
2019-05-07T03:38:43.732Z,4.25
2019-05-07T03:41:13.954Z,8.53
2019-05-07T03:43:45.309Z,5.55
2019-05-07T03:46:18.249Z,6.35
2019-05-07T03:48:49.523Z,8.53
2019-05-07T03:51:23.538Z,8.53
2019-05-07T03:53:54.350Z,4.20
2019-05-07T03:56:25.445Z,3.85
2019-05-07T03:58:57.045Z,3.87
2019-05-07T04:01:28.481Z,4.12
2019-05-07T04:03:59.791Z,3.98
2019-05-07T04:06:33.215Z,4.08
2019-05-07T04:09:05.476Z,3.80
2019-05-07T04:11:36.531Z,5.72
2019-05-07T04:14:09.314Z,4.58
2019-05-07T04:16:40.359Z,4.45
2019-05-07T04:19:13.246Z,4.47
2019-05-07T04:21:44.600Z,4.05
2019-05-07T04:24:17.597Z,5.00
2019-05-07T04:26:53.503Z,5.10
2019-05-07T04:29:23.470Z,5.65
2019-05-07T04:31:54.621Z,5.12
2019-05-07T04:34:45.777Z,5.15
2019-05-07T04:37:17.085Z,5.72
2019-05-07T04:39:54.302Z,5.60
2019-05-07T04:42:25.664Z,5.70
2019-05-07T04:44:57.152Z,5.55
2019-05-07T04:47:38.453Z,4.97
2019-05-07T04:50:03.833Z,4.67
2019-05-07T04:52:39.023Z,4.00
2019-05-07T04:55:13.580Z,5.08
2019-05-07T04:57:43.843Z,4.30
2019-05-07T05:00:16.485Z,4.80
2019-05-07T05:02:55.193Z,4.70
2019-05-07T05:05:26.645Z,5.00
2019-05-07T05:07:57.995Z,4.72
2019-05-07T05:10:29.242Z,4.70
2019-05-07T05:13:02.933Z,4.60
2019-05-07T05:15:33.272Z,4.37
2019-05-07T05:18:04.318Z,4.37
2019-05-07T05:20:37.368Z,3.98
2019-05-07T05:23:13.164Z,4.60
2019-05-07T05:25:45.032Z,3.80
2019-05-07T05:28:16.280Z,3.95
2019-05-07T05:30:49.939Z,4.40
2019-05-07T05:33:23.407Z,4.17
2019-05-07T05:35:54.225Z,4.22
2019-05-07T05:38:25.370Z,4.20
2019-05-07T05:40:56.926Z,4.25
2019-05-07T05:43:31.930Z,3.95
2019-05-07T05:46:12.066Z,4.28
2019-05-07T05:48:43.594Z,4.12
2019-05-07T05:51:33.061Z,4.25
2019-05-07T05:54:15.261Z,4.47
2019-05-07T05:56:52.007Z,4.20
2019-05-07T05:59:32.490Z,4.05
2019-05-07T06:02:14.501Z,4.17
2019-05-07T06:04:56.216Z,4.72
2019-05-07T06:07:42.737Z,4.58
2019-05-07T06:10:15.715Z,3.42
2019-05-07T06:12:52.360Z,3.72
2019-05-07T06:15:25.384Z,3.85
2019-05-07T06:17:58.401Z,4.62
2019-05-07T06:20:32.073Z,4.00
2019-05-07T06:23:12.878Z,3.70
2019-05-07T06:25:45.029Z,4.45
2019-05-07T06:28:16.175Z,4.47
2019-05-07T06:30:47.216Z,4.95
2019-05-07T06:33:18.670Z,4.80
2019-05-07T06:35:51.909Z,3.95
2019-05-07T06:38:24.005Z,4.47
2019-05-07T06:40:59.996Z,4.30
2019-05-07T06:43:32.947Z,3.98
2019-05-07T06:46:05.672Z,3.65
2019-05-07T06:48:42.313Z,4.03
2019-05-07T06:51:09.989Z,3.85
2019-05-07T06:53:42.256Z,4.30
2019-05-07T06:56:13.538Z,3.92
2019-05-07T06:58:49.085Z,4.25
2019-05-07T07:01:24.714Z,4.92
2019-05-07T07:04:10.032Z,4.25
2019-05-07T07:06:49.052Z,4.78
2019-05-07T07:09:27.506Z,5.00
2019-05-07T07:12:02.020Z,5.47
2019-05-07T07:14:34.160Z,4.83
2019-05-07T07:17:05.417Z,4.17
2019-05-07T07:19:36.771Z,4.08
2019-05-07T07:22:08.260Z,4.03
2019-05-07T07:24:39.654Z,5.53
2019-05-07T07:27:13.164Z,4.90
2019-05-07T07:30:03.681Z,3.27
2019-05-07T07:32:36.771Z,3.02
2019-05-07T07:35:09.972Z,4.20
2019-05-07T07:37:43.023Z,3.77
2019-05-07T07:40:22.526Z,3.05
2019-05-07T07:42:54.590Z,3.20
2019-05-07T07:45:25.826Z,2.98
2019-05-07T07:47:57.276Z,3.52
2019-05-07T07:50:28.815Z,3.15
2019-05-07T07:53:02.330Z,3.45
2019-05-07T07:55:34.548Z,3.47
2019-05-07T07:58:07.599Z,2.62
2019-05-07T08:00:49.501Z,3.30
2019-05-07T08:03:22.600Z,3.37
2019-05-07T08:05:53.760Z,3.22
2019-05-07T08:08:25.201Z,2.87
2019-05-07T08:10:56.352Z,3.42
2019-05-07T08:13:27.704Z,2.83
2019-05-07T08:15:59.154Z,2.70
2019-05-07T08:18:32.609Z,3.15
2019-05-07T08:21:03.493Z,3.00
2019-05-07T08:23:35.055Z,2.72
2019-05-07T08:26:06.096Z,2.52
2019-05-07T08:28:37.023Z,3.30
2019-05-07T08:31:18.828Z,3.30
2019-05-07T08:34:03.707Z,2.77
2019-05-07T08:36:35.774Z,3.67
2019-05-07T08:39:08.665Z,2.40
2019-05-07T08:41:39.638Z,3.12
2019-05-07T08:44:15.765Z,2.45
2019-05-07T08:46:49.183Z,2.20
2019-05-07T08:49:33.463Z,2.22
2019-05-07T08:52:03.775Z,2.40
2019-05-07T08:54:35.217Z,2.60
2019-05-07T08:57:06.253Z,2.20
2019-05-07T08:59:37.704Z,2.87
2019-05-07T09:02:08.923Z,3.42
2019-05-07T09:04:41.740Z,2.83
2019-05-07T09:07:13.261Z,4.87
2019-05-07T09:09:44.654Z,2.70
2019-05-07T09:12:15.692Z,2.80
2019-05-07T09:14:46.691Z,2.80
2019-05-07T09:17:18.193Z,7.25
2019-05-07T09:19:52.183Z,4.03
2019-05-07T09:22:23.140Z,6.25
2019-05-07T09:24:54.302Z,3.37
2019-05-07T09:27:27.277Z,3.55
2019-05-07T09:30:03.061Z,3.08
2019-05-07T09:32:37.473Z,2.90
2019-05-07T09:35:12.388Z,3.60
2019-05-07T09:37:43.585Z,3.85
2019-05-07T09:40:14.909Z,3.80
2019-05-07T09:42:46.164Z,3.72
2019-05-07T09:45:17.606Z,3.90
2019-05-07T09:47:48.972Z,3.37
2019-05-07T09:50:21.887Z,3.33
2019-05-07T09:52:53.199Z,3.77
2019-05-07T09:55:24.462Z,3.12
2019-05-07T09:57:55.600Z,2.85
2019-05-07T10:00:27.058Z,2.98
2019-05-07T10:02:58.425Z,4.20
2019-05-07T10:05:31.953Z,2.90
2019-05-07T10:08:02.591Z,4.05
2019-05-07T10:10:33.700Z,3.17
2019-05-07T10:13:12.085Z,3.65
2019-05-07T10:15:42.866Z,3.27
2019-05-07T10:18:15.844Z,3.50
2019-05-07T10:20:47.194Z,3.72
2019-05-07T10:23:22.991Z,3.00
2019-05-07T10:25:53.999Z,2.80
2019-05-07T10:28:25.046Z,3.20
2019-05-07T10:30:56.603Z,3.20
2019-05-07T10:33:27.849Z,3.50
2019-05-07T10:36:01.937Z,3.75
2019-05-07T10:38:33.420Z,4.17
2019-05-07T10:41:04.772Z,3.35
2019-05-07T10:43:36.138Z,3.20
2019-05-07T10:46:24.079Z,3.30
2019-05-07T10:49:09.659Z,3.75
2019-05-07T10:51:42.539Z,3.40
2019-05-07T10:54:13.791Z,3.50
2019-05-07T10:56:45.146Z,3.25
2019-05-07T10:59:16.496Z,3.80
2019-05-07T11:01:51.875Z,3.27
2019-05-07T11:04:22.482Z,3.75
2019-05-07T11:06:53.831Z,3.12
2019-05-07T11:09:25.284Z,3.87
2019-05-07T11:11:56.737Z,3.67
2019-05-07T11:14:27.981Z,3.95
2019-05-07T11:17:02.618Z,3.55
2019-05-07T11:22:04.295Z,3.87
2019-05-07T11:24:35.758Z,2.98
2019-05-07T11:27:06.992Z,3.50
2019-05-07T11:29:38.350Z,3.02
2019-05-07T11:32:09.803Z,3.47
2019-05-07T11:34:42.888Z,2.90
2019-05-07T11:37:14.264Z,3.50
2019-05-07T11:39:45.795Z,4.10
2019-05-07T11:42:22.009Z,4.08
2019-05-07T11:44:54.983Z,9.30
2019-05-07T11:47:31.909Z,7.05
2019-05-07T11:50:22.622Z,4.17
2019-05-07T11:53:01.575Z,3.33
2019-05-07T11:55:33.030Z,4.30
2019-05-07T11:58:05.339Z,4.37
2019-05-07T12:00:53.856Z,4.53
2019-05-07T12:03:25.349Z,4.55
2019-05-07T12:05:56.729Z,4.37
2019-05-07T12:08:39.331Z,4.30
2019-05-07T12:11:02.345Z,3.92
2019-05-07T12:13:33.686Z,4.08
2019-05-07T12:16:04.835Z,4.90
2019-05-07T12:18:36.168Z,4.67
2019-05-07T12:21:20.015Z,4.45
2019-05-07T12:23:42.165Z,4.67
2019-05-07T12:26:13.398Z,4.45
2019-05-07T12:28:45.070Z,5.17
2019-05-07T12:31:35.014Z,4.60
2019-05-07T12:34:08.641Z,4.47
2019-05-07T12:36:40.077Z,5.22
2019-05-07T12:39:12.813Z,5.42
2019-05-07T12:41:44.349Z,4.87
2019-05-07T12:44:15.885Z,4.65
2019-05-07T12:46:48.049Z,5.50
2019-05-07T12:49:19.198Z,5.10
2019-05-07T12:51:55.558Z,5.00
2019-05-07T12:54:28.567Z,5.08
2019-05-07T12:57:00.101Z,5.50
2019-05-07T12:59:32.218Z,4.70
2019-05-07T13:02:21.404Z,4.72
2019-05-07T13:04:41.757Z,5.17
2019-05-07T13:07:14.519Z,4.15
2019-05-07T13:09:46.067Z,5.05
2019-05-07T13:12:17.210Z,4.50
2019-05-07T13:14:48.325Z,4.28
2019-05-07T13:17:19.709Z,4.95
2019-05-07T13:19:52.443Z,4.58
2019-05-07T13:22:24.248Z,3.70
2019-05-07T13:24:55.770Z,3.90
2019-05-07T13:27:28.306Z,4.42
2019-05-07T13:30:02.373Z,4.20
2019-05-07T13:32:32.968Z,4.33
2019-05-07T13:35:06.059Z,4.22
2019-05-07T13:37:41.895Z,4.33
2019-05-07T13:40:34.229Z,4.95
2019-05-07T13:43:15.950Z,4.22
2019-05-07T13:45:49.124Z,4.62
2019-05-07T13:48:25.138Z,4.22
2019-05-07T13:50:58.176Z,4.45
2019-05-07T13:53:32.311Z,4.60
2019-05-07T13:56:03.791Z,4.10
2019-05-07T13:58:36.603Z,4.87
2019-05-07T14:01:12.317Z,5.50
2019-05-07T14:03:43.676Z,5.03
2019-05-07T14:06:16.761Z,6.55
2019-05-07T14:08:48.137Z,5.83
2019-05-07T14:11:22.407Z,6.28
2019-05-07T14:13:53.687Z,5.17
2019-05-07T14:16:25.021Z,5.85
2019-05-07T14:18:56.714Z,4.37
2019-05-07T14:21:28.865Z,5.15
2019-05-07T14:24:01.450Z,5.55
2019-05-07T14:26:32.814Z,5.55
2019-05-07T14:29:04.758Z,6.15
2019-05-07T14:31:36.032Z,5.97
2019-05-07T14:34:26.108Z,5.22
2019-05-07T14:37:01.965Z,5.03
2019-05-07T14:39:33.307Z,5.12
2019-05-07T14:42:06.010Z,6.00
2019-05-07T14:44:48.821Z,5.65
2019-05-07T14:47:22.240Z,4.78
2019-05-07T14:49:54.018Z,5.00
2019-05-07T14:52:32.187Z,3.80
2019-05-07T14:54:58.424Z,4.62
2019-05-07T14:57:29.758Z,4.78
2019-05-07T15:00:03.093Z,3.90
2019-05-07T15:02:33.942Z,4.67
2019-05-07T15:05:08.216Z,4.45
2019-05-07T15:07:39.240Z,4.00
2019-05-07T15:10:11.225Z,4.35
2019-05-07T15:12:42.711Z,5.70
2019-05-07T15:15:13.801Z,5.58
2019-05-07T15:17:49.255Z,4.37
2019-05-07T15:20:22.408Z,5.35
2019-05-07T15:22:55.203Z,4.95
2019-05-07T15:25:26.578Z,5.08
2019-05-07T15:27:57.979Z,5.22
2019-05-07T15:30:32.486Z,4.70
2019-05-07T15:33:03.684Z,5.28
2019-05-07T15:35:34.996Z,6.28
2019-05-07T15:38:06.425Z,7.40
2019-05-07T15:40:37.853Z,5.55
2019-05-07T15:43:09.068Z,5.87
2019-05-07T15:45:40.065Z,5.90
2019-05-07T15:48:12.727Z,5.72
2019-05-07T15:50:44.285Z,6.28
2019-05-07T15:53:21.904Z,6.53
2019-05-07T15:55:53.117Z,7.12
2019-05-07T15:58:24.259Z,7.00
2019-05-07T16:00:55.309Z,7.35
2019-05-07T16:03:34.118Z,8.35
2019-05-07T16:06:05.394Z,9.93
2019-05-07T16:08:44.326Z,8.78
2019-05-07T16:11:15.867Z,7.47
2019-05-07T16:14:07.489Z,6.58
2019-05-07T16:16:40.239Z,6.47
2019-05-07T16:19:13.263Z,6.50
2019-05-07T16:21:44.653Z,5.67
2019-05-07T16:24:16.173Z,6.62
2019-05-07T16:26:47.584Z,6.35
2019-05-07T16:29:18.968Z,6.60
2019-05-07T16:31:52.115Z,6.50
2019-05-07T16:34:24.641Z,7.05
2019-05-07T16:36:55.783Z,6.08
2019-05-07T16:39:27.341Z,7.20
2019-05-07T16:41:58.605Z,6.80
2019-05-07T16:44:29.912Z,8.23
2019-05-07T16:47:02.828Z,9.23
2019-05-07T16:49:34.281Z,9.78
2019-05-07T16:52:05.733Z,8.80
2019-05-07T16:54:37.054Z,8.38
2019-05-07T16:57:16.231Z,7.70
2019-05-07T16:59:47.583Z,7.37
2019-05-07T17:02:23.510Z,5.42
2019-05-07T17:05:08.407Z,6.42
2019-05-07T17:07:47.206Z,7.12
2019-05-07T17:10:18.757Z,7.17
2019-05-07T17:12:52.244Z,6.00
2019-05-07T17:15:22.977Z,5.58
2019-05-07T17:18:00.053Z,6.00
2019-05-07T17:20:32.683Z,5.30
2019-05-07T17:23:06.385Z,11.85
2019-05-07T17:25:37.906Z,9.00
2019-05-07T17:28:09.378Z,7.80
2019-05-07T17:30:42.149Z,6.03
2019-05-07T17:33:13.301Z,7.97
2019-05-07T17:35:47.419Z,6.47
2019-05-07T17:38:20.065Z,6.20
2019-05-07T17:40:52.193Z,6.62
2019-05-07T17:43:23.506Z,6.25
2019-05-07T17:45:54.567Z,6.90
2019-05-07T17:48:25.943Z,5.58
2019-05-07T17:50:58.830Z,8.18
2019-05-07T17:53:32.001Z,8.80
2019-05-07T17:56:03.234Z,7.22
2019-05-07T17:58:34.916Z,10.03
2019-05-07T18:01:06.751Z,7.90
2019-05-07T18:03:42.821Z,7.70
2019-05-07T18:06:13.784Z,7.25
2019-05-07T18:08:45.283Z,7.70
2019-05-07T18:11:21.172Z,10.30
2019-05-07T18:13:51.750Z,12.03
2019-05-07T18:16:27.348Z,12.65
2019-05-07T18:18:58.498Z,12.82
2019-05-07T18:21:29.642Z,14.47
2019-05-07T18:24:13.307Z,14.35
2019-05-07T18:26:35.313Z,15.70
2019-05-07T18:29:06.343Z,15.98
2019-05-07T18:31:51.230Z,16.57
2019-05-07T18:34:22.477Z,16.07
2019-05-07T18:36:53.999Z,15.95
2019-05-07T18:39:25.502Z,18.60
2019-05-07T18:41:57.044Z,18.17
2019-05-07T18:44:28.189Z,19.73
2019-05-07T18:46:59.441Z,21.07
2019-05-07T18:49:30.514Z,20.10
2019-05-07T18:52:02.882Z,20.43
2019-05-07T18:54:34.236Z,22.32
2019-05-07T18:57:05.460Z,19.65
2019-05-07T18:59:37.530Z,19.20
2019-05-07T19:02:09.193Z,20.57
2019-05-07T19:04:42.227Z,21.02
2019-05-07T19:07:13.542Z,20.50
2019-05-07T19:09:47.729Z,20.70
2019-05-07T19:12:17.930Z,19.55
2019-05-07T19:14:51.629Z,18.65
2019-05-07T19:17:25.532Z,19.48
2019-05-07T19:19:55.474Z,16.73
2019-05-07T19:22:27.097Z,18.20
2019-05-07T19:24:58.521Z,20.80
2019-05-07T19:27:30.024Z,20.70
2019-05-07T19:30:01.842Z,19.85
2019-05-07T19:32:33.799Z,20.77
2019-05-07T19:35:05.755Z,21.95
2019-05-07T19:37:37.616Z,19.17
2019-05-07T19:40:09.071Z,20.45
2019-05-07T19:42:42.625Z,20.92
2019-05-07T19:45:13.438Z,19.75
2019-05-07T19:47:44.987Z,22.25
2019-05-07T19:50:16.548Z,20.32
2019-05-07T19:52:47.975Z,21.90
2019-05-07T19:55:21.835Z,21.17
2019-05-07T19:57:54.287Z,21.93
2019-05-07T20:00:26.741Z,21.17
2019-05-07T20:02:59.556Z,21.05
2019-05-07T20:05:32.340Z,26.55
2019-05-07T20:08:04.778Z,23.75
2019-05-07T20:10:38.009Z,21.12
2019-05-07T20:13:09.327Z,21.23
2019-05-07T20:15:43.485Z,21.42
2019-05-07T20:18:14.836Z,23.05
2019-05-07T20:20:47.680Z,25.25
2019-05-07T20:23:19.218Z,23.20
2019-05-07T20:25:52.765Z,25.08
2019-05-07T20:28:24.133Z,24.87
2019-05-07T20:30:56.366Z,24.35
2019-05-07T20:33:28.004Z,23.85
2019-05-07T20:35:59.572Z,22.82
2019-05-07T20:38:32.063Z,23.05
2019-05-07T20:41:03.557Z,23.60
2019-05-07T20:43:35.008Z,24.40
2019-05-07T20:46:07.380Z,23.87
2019-05-07T20:48:38.837Z,23.18
2019-05-07T20:51:12.205Z,22.73
2019-05-07T20:54:02.840Z,22.80
2019-05-07T20:56:38.662Z,22.93
2019-05-07T20:59:12.331Z,23.62
2019-05-07T21:01:42.840Z,28.90
2019-05-07T21:04:14.102Z,33.48
2019-05-07T21:06:45.952Z,22.48
2019-05-07T21:09:17.453Z,23.85
2019-05-07T21:11:48.852Z,25.92
2019-05-07T21:14:20.191Z,23.10
2019-05-07T21:16:52.693Z,25.50
2019-05-07T21:19:23.957Z,25.23
2019-05-07T21:21:55.202Z,24.60
2019-05-07T21:24:26.602Z,24.47
2019-05-07T21:26:58.502Z,22.82
2019-05-07T21:29:29.916Z,22.55
2019-05-07T21:32:03.233Z,25.35
2019-05-07T21:34:34.724Z,25.97
2019-05-07T21:37:08.472Z,24.70
2019-05-07T21:39:38.861Z,24.47
2019-05-07T21:42:13.886Z,22.73
2019-05-07T21:44:43.546Z,23.30
2019-05-07T21:47:14.865Z,20.60
2019-05-07T21:49:46.219Z,21.12
2019-05-07T21:52:17.773Z,25.62
2019-05-07T21:54:52.501Z,22.55
2019-05-07T21:57:41.864Z,21.17
2019-05-07T22:00:15.076Z,18.55
2019-05-07T22:02:48.028Z,19.62
2019-05-07T22:05:19.625Z,17.55
2019-05-07T22:07:54.224Z,21.42
2019-05-07T22:10:23.972Z,19.17
2019-05-07T22:12:55.270Z,20.40
2019-05-07T22:15:26.740Z,18.87
2019-05-07T22:17:58.432Z,19.92
2019-05-07T22:20:31.440Z,19.35
2019-05-07T22:23:02.943Z,14.95
2019-05-07T22:25:34.230Z,10.63
2019-05-07T22:28:06.888Z,12.37
2019-05-07T22:30:46.232Z,12.53
2019-05-07T22:33:19.339Z,13.30
2019-05-07T22:35:52.255Z,13.43
2019-05-07T22:38:43.784Z,11.53
2019-05-07T22:41:16.757Z,13.30
2019-05-07T22:43:48.826Z,12.10
2019-05-07T22:46:22.285Z,11.60
2019-05-07T22:48:53.989Z,12.10
2019-05-07T22:51:25.338Z,11.15
2019-05-07T22:53:57.920Z,13.95
2019-05-07T22:56:46.986Z,11.85
2019-05-07T22:59:18.396Z,10.88
2019-05-07T23:01:51.670Z,9.73
2019-05-07T23:04:23.613Z,10.03
2019-05-07T23:06:54.644Z,9.93
2019-05-07T23:09:25.700Z,9.78
2019-05-07T23:11:57.155Z,11.22
2019-05-07T23:14:28.507Z,10.28
2019-05-07T23:17:02.235Z,10.00
2019-05-07T23:19:33.115Z,9.15
2019-05-07T23:22:04.698Z,9.58
2019-05-07T23:24:36.043Z,9.95
2019-05-07T23:27:07.514Z,9.60
2019-05-07T23:29:38.926Z,8.85
2019-05-07T23:32:12.543Z,9.33
2019-05-07T23:34:43.496Z,9.00
2019-05-07T23:37:14.963Z,10.25
2019-05-07T23:39:48.268Z,10.28
2019-05-07T23:42:21.316Z,10.93
2019-05-07T23:44:52.867Z,11.35
2019-05-07T23:47:24.456Z,10.85
2019-05-07T23:49:56.114Z,11.85
2019-05-07T23:52:27.879Z,11.95
2019-05-07T23:54:59.536Z,12.60
2019-05-07T23:57:32.533Z,12.90
